sensor_id;sensor_type;location;lat;lon;timestamp;P1;durP1;ratioP1;P2;durP2;ratioP2
35797;SDS011;21918;49.940;7.774;2022-10-04T00:00:58;5.45;;;4.22;;
35797;SDS011;21918;49.940;7.774;2022-10-04T00:03:31;4.80;;;4.05;;
35797;SDS011;21918;49.940;7.774;2022-10-04T00:06:01;4.90;;;3.95;;
35797;SDS011;21918;49.940;7.774;2022-10-04T00:08:31;5.90;;;4.72;;
35797;SDS011;21918;49.940;7.774;2022-10-04T00:11:04;10.35;;;5.30;;
35797;SDS011;21918;49.940;7.774;2022-10-04T00:13:33;4.70;;;4.30;;
35797;SDS011;21918;49.940;7.774;2022-10-04T00:16:04;9.15;;;5.30;;
35797;SDS011;21918;49.940;7.774;2022-10-04T00:18:36;6.13;;;5.05;;
35797;SDS011;21918;49.940;7.774;2022-10-04T00:21:05;5.60;;;4.85;;
35797;SDS011;21918;49.940;7.774;2022-10-04T00:23:40;6.80;;;4.65;;
35797;SDS011;21918;49.940;7.774;2022-10-04T00:26:12;5.47;;;4.97;;
35797;SDS011;21918;49.940;7.774;2022-10-04T00:34:52;4.30;;;3.92;;
35797;SDS011;21918;49.940;7.774;2022-10-04T00:39:57;4.65;;;4.25;;
35797;SDS011;21918;49.940;7.774;2022-10-04T00:42:31;5.30;;;4.80;;
35797;SDS011;21918;49.940;7.774;2022-10-04T00:48:07;5.57;;;4.28;;
35797;SDS011;21918;49.940;7.774;2022-10-04T00:53:34;5.30;;;4.50;;
35797;SDS011;21918;49.940;7.774;2022-10-04T00:56:05;8.05;;;4.90;;
35797;SDS011;21918;49.940;7.774;2022-10-04T00:58:39;5.88;;;4.70;;
35797;SDS011;21918;49.940;7.774;2022-10-04T01:01:13;5.15;;;4.60;;
35797;SDS011;21918;49.940;7.774;2022-10-04T01:03:48;5.50;;;4.32;;
35797;SDS011;21918;49.940;7.774;2022-10-04T01:06:17;4.15;;;3.78;;
35797;SDS011;21918;49.940;7.774;2022-10-04T01:08:47;5.55;;;3.80;;
35797;SDS011;21918;49.940;7.774;2022-10-04T01:11:16;6.60;;;4.22;;
35797;SDS011;21918;49.940;7.774;2022-10-04T01:13:47;5.90;;;4.25;;
35797;SDS011;21918;49.940;7.774;2022-10-04T01:16:17;5.43;;;4.90;;
35797;SDS011;21918;49.940;7.774;2022-10-04T01:18:52;5.72;;;4.78;;
35797;SDS011;21918;49.940;7.774;2022-10-04T01:21:21;9.75;;;5.47;;
35797;SDS011;21918;49.940;7.774;2022-10-04T01:23:53;6.28;;;4.57;;
35797;SDS011;21918;49.940;7.774;2022-10-04T01:26:46;7.72;;;4.35;;
35797;SDS011;21918;49.940;7.774;2022-10-04T01:29:14;5.10;;;4.60;;
35797;SDS011;21918;49.940;7.774;2022-10-04T01:31:43;4.55;;;4.13;;
35797;SDS011;21918;49.940;7.774;2022-10-04T01:34:12;6.25;;;4.22;;
35797;SDS011;21918;49.940;7.774;2022-10-04T01:36:40;5.25;;;4.75;;
35797;SDS011;21918;49.940;7.774;2022-10-04T01:39:09;7.30;;;5.40;;
35797;SDS011;21918;49.940;7.774;2022-10-04T01:41:42;4.50;;;3.95;;
35797;SDS011;21918;49.940;7.774;2022-10-04T01:44:15;6.15;;;5.20;;
35797;SDS011;21918;49.940;7.774;2022-10-04T01:46:47;7.03;;;5.03;;
35797;SDS011;21918;49.940;7.774;2022-10-04T01:49:16;5.05;;;4.18;;
35797;SDS011;21918;49.940;7.774;2022-10-04T01:51:48;8.98;;;5.10;;
35797;SDS011;21918;49.940;7.774;2022-10-04T01:54:24;4.57;;;3.92;;
35797;SDS011;21918;49.940;7.774;2022-10-04T01:56:59;5.50;;;4.70;;
35797;SDS011;21918;49.940;7.774;2022-10-04T01:59:30;6.28;;;4.95;;
35797;SDS011;21918;49.940;7.774;2022-10-04T02:01:59;7.85;;;5.00;;
35797;SDS011;21918;49.940;7.774;2022-10-04T02:04:31;7.72;;;4.75;;
35797;SDS011;21918;49.940;7.774;2022-10-04T02:07:02;4.82;;;4.38;;
35797;SDS011;21918;49.940;7.774;2022-10-04T02:09:38;4.80;;;3.95;;
35797;SDS011;21918;49.940;7.774;2022-10-04T02:12:07;6.10;;;4.85;;
35797;SDS011;21918;49.940;7.774;2022-10-04T02:14:35;6.88;;;4.50;;
35797;SDS011;21918;49.940;7.774;2022-10-04T02:17:04;6.55;;;4.35;;
35797;SDS011;21918;49.940;7.774;2022-10-04T02:19:35;5.65;;;4.65;;
35797;SDS011;21918;49.940;7.774;2022-10-04T02:22:04;4.47;;;4.07;;
35797;SDS011;21918;49.940;7.774;2022-10-04T02:24:34;4.57;;;4.03;;
35797;SDS011;21918;49.940;7.774;2022-10-04T02:27:05;5.53;;;4.72;;
35797;SDS011;21918;49.940;7.774;2022-10-04T02:29:33;4.65;;;4.22;;
35797;SDS011;21918;49.940;7.774;2022-10-04T02:32:01;7.65;;;5.68;;
35797;SDS011;21918;49.940;7.774;2022-10-04T02:34:46;5.55;;;4.65;;
35797;SDS011;21918;49.940;7.774;2022-10-04T02:37:14;8.07;;;4.50;;
35797;SDS011;21918;49.940;7.774;2022-10-04T02:39:49;5.40;;;3.72;;
35797;SDS011;21918;49.940;7.774;2022-10-04T02:42:24;5.72;;;4.22;;
35797;SDS011;21918;49.940;7.774;2022-10-04T02:45:01;4.45;;;4.05;;
35797;SDS011;21918;49.940;7.774;2022-10-04T02:47:35;6.90;;;4.43;;
35797;SDS011;21918;49.940;7.774;2022-10-04T02:50:15;4.68;;;4.25;;
35797;SDS011;21918;49.940;7.774;2022-10-04T02:52:49;11.32;;;4.72;;
35797;SDS011;21918;49.940;7.774;2022-10-04T02:55:23;5.10;;;4.55;;
35797;SDS011;21918;49.940;7.774;2022-10-04T02:57:53;4.40;;;3.97;;
35797;SDS011;21918;49.940;7.774;2022-10-04T03:00:23;6.10;;;4.60;;
35797;SDS011;21918;49.940;7.774;2022-10-04T03:03:14;6.07;;;4.05;;
35797;SDS011;21918;49.940;7.774;2022-10-04T03:05:52;7.68;;;5.10;;
35797;SDS011;21918;49.940;7.774;2022-10-04T03:08:23;6.25;;;4.38;;
35797;SDS011;21918;49.940;7.774;2022-10-04T03:10:50;4.57;;;4.07;;
35797;SDS011;21918;49.940;7.774;2022-10-04T03:13:18;5.18;;;4.68;;
35797;SDS011;21918;49.940;7.774;2022-10-04T03:15:46;15.68;;;11.43;;
35797;SDS011;21918;49.940;7.774;2022-10-04T03:18:21;26.88;;;19.52;;
35797;SDS011;21918;49.940;7.774;2022-10-04T03:20:49;21.20;;;14.73;;
35797;SDS011;21918;49.940;7.774;2022-10-04T03:23:16;14.57;;;10.65;;
35797;SDS011;21918;49.940;7.774;2022-10-04T03:25:48;9.07;;;7.47;;
35797;SDS011;21918;49.940;7.774;2022-10-04T03:28:20;8.40;;;5.75;;
35797;SDS011;21918;49.940;7.774;2022-10-04T03:30:47;5.38;;;4.88;;
35797;SDS011;21918;49.940;7.774;2022-10-04T03:33:15;6.30;;;5.18;;
35797;SDS011;21918;49.940;7.774;2022-10-04T03:35:49;6.68;;;4.90;;
35797;SDS011;21918;49.940;7.774;2022-10-04T03:38:19;5.18;;;4.55;;
35797;SDS011;21918;49.940;7.774;2022-10-04T03:40:49;7.82;;;5.13;;
35797;SDS011;21918;49.940;7.774;2022-10-04T03:43:20;5.40;;;4.60;;
35797;SDS011;21918;49.940;7.774;2022-10-04T03:45:50;4.80;;;4.30;;
35797;SDS011;21918;49.940;7.774;2022-10-04T03:48:21;4.55;;;4.15;;
35797;SDS011;21918;49.940;7.774;2022-10-04T03:50:54;5.43;;;4.82;;
35797;SDS011;21918;49.940;7.774;2022-10-04T03:53:27;8.30;;;4.68;;
35797;SDS011;21918;49.940;7.774;2022-10-04T03:55:56;6.25;;;4.68;;
35797;SDS011;21918;49.940;7.774;2022-10-04T03:58:25;4.63;;;4.18;;
35797;SDS011;21918;49.940;7.774;2022-10-04T04:00:59;6.28;;;4.70;;
35797;SDS011;21918;49.940;7.774;2022-10-04T04:03:40;5.03;;;4.05;;
35797;SDS011;21918;49.940;7.774;2022-10-04T04:06:18;4.65;;;4.10;;
35797;SDS011;21918;49.940;7.774;2022-10-04T04:08:46;7.78;;;3.80;;
35797;SDS011;21918;49.940;7.774;2022-10-04T04:11:18;7.88;;;4.68;;
35797;SDS011;21918;49.940;7.774;2022-10-04T04:13:50;4.30;;;3.90;;
35797;SDS011;21918;49.940;7.774;2022-10-04T04:16:23;6.57;;;4.20;;
35797;SDS011;21918;49.940;7.774;2022-10-04T04:18:51;5.43;;;4.10;;
35797;SDS011;21918;49.940;7.774;2022-10-04T04:21:19;7.40;;;5.10;;
35797;SDS011;21918;49.940;7.774;2022-10-04T04:23:49;6.65;;;4.75;;
35797;SDS011;21918;49.940;7.774;2022-10-04T04:26:20;6.63;;;5.05;;
35797;SDS011;21918;49.940;7.774;2022-10-04T04:28:53;7.78;;;5.93;;
35797;SDS011;21918;49.940;7.774;2022-10-04T04:31:24;6.38;;;5.78;;
35797;SDS011;21918;49.940;7.774;2022-10-04T04:33:54;15.00;;;8.05;;
35797;SDS011;21918;49.940;7.774;2022-10-04T04:36:23;10.07;;;8.63;;
35797;SDS011;21918;49.940;7.774;2022-10-04T04:38:50;9.60;;;8.57;;
35797;SDS011;21918;49.940;7.774;2022-10-04T04:41:43;10.77;;;7.22;;
35797;SDS011;21918;49.940;7.774;2022-10-04T04:44:15;7.95;;;7.18;;
35797;SDS011;21918;49.940;7.774;2022-10-04T04:46:43;9.52;;;8.65;;
35797;SDS011;21918;49.940;7.774;2022-10-04T04:49:10;8.60;;;7.80;;
35797;SDS011;21918;49.940;7.774;2022-10-04T04:51:40;8.15;;;7.13;;
35797;SDS011;21918;49.940;7.774;2022-10-04T04:54:13;5.20;;;4.70;;
35797;SDS011;21918;49.940;7.774;2022-10-04T04:56:41;5.63;;;4.65;;
35797;SDS011;21918;49.940;7.774;2022-10-04T04:59:10;5.43;;;4.90;;
35797;SDS011;21918;49.940;7.774;2022-10-04T05:01:42;5.35;;;4.55;;
35797;SDS011;21918;49.940;7.774;2022-10-04T05:04:16;4.35;;;3.95;;
35797;SDS011;21918;49.940;7.774;2022-10-04T05:06:45;8.55;;;4.30;;
35797;SDS011;21918;49.940;7.774;2022-10-04T05:09:21;6.93;;;4.60;;
35797;SDS011;21918;49.940;7.774;2022-10-04T05:11:49;7.35;;;5.00;;
35797;SDS011;21918;49.940;7.774;2022-10-04T05:14:19;4.78;;;4.38;;
35797;SDS011;21918;49.940;7.774;2022-10-04T05:16:49;5.47;;;4.57;;
35797;SDS011;21918;49.940;7.774;2022-10-04T05:19:18;5.43;;;4.93;;
35797;SDS011;21918;49.940;7.774;2022-10-04T05:21:47;4.78;;;4.28;;
35797;SDS011;21918;49.940;7.774;2022-10-04T05:24:18;6.55;;;4.95;;
35797;SDS011;21918;49.940;7.774;2022-10-04T05:26:52;5.30;;;4.53;;
35797;SDS011;21918;49.940;7.774;2022-10-04T05:29:25;5.47;;;4.25;;
35797;SDS011;21918;49.940;7.774;2022-10-04T05:31:59;5.43;;;4.03;;
35797;SDS011;21918;49.940;7.774;2022-10-04T05:34:37;5.95;;;4.65;;
35797;SDS011;21918;49.940;7.774;2022-10-04T05:40:15;6.20;;;5.45;;
35797;SDS011;21918;49.940;7.774;2022-10-04T05:42:52;6.05;;;5.18;;
35797;SDS011;21918;49.940;7.774;2022-10-04T05:45:22;7.70;;;4.70;;
35797;SDS011;21918;49.940;7.774;2022-10-04T05:47:53;10.38;;;5.38;;
35797;SDS011;21918;49.940;7.774;2022-10-04T05:50:22;5.25;;;4.50;;
35797;SDS011;21918;49.940;7.774;2022-10-04T05:53:05;5.07;;;4.57;;
35797;SDS011;21918;49.940;7.774;2022-10-04T05:55:39;5.50;;;4.80;;
35797;SDS011;21918;49.940;7.774;2022-10-04T05:58:20;5.38;;;4.38;;
35797;SDS011;21918;49.940;7.774;2022-10-04T06:01:07;5.32;;;4.10;;
35797;SDS011;21918;49.940;7.774;2022-10-04T06:03:50;5.53;;;3.88;;
35797;SDS011;21918;49.940;7.774;2022-10-04T06:06:30;4.18;;;3.78;;
35797;SDS011;21918;49.940;7.774;2022-10-04T06:09:06;5.57;;;4.05;;
35797;SDS011;21918;49.940;7.774;2022-10-04T06:11:42;5.55;;;4.05;;
35797;SDS011;21918;49.940;7.774;2022-10-04T06:17:24;4.60;;;4.13;;
35797;SDS011;21918;49.940;7.774;2022-10-04T06:23:00;6.88;;;3.90;;
35797;SDS011;21918;49.940;7.774;2022-10-04T06:25:33;4.55;;;4.05;;
35797;SDS011;21918;49.940;7.774;2022-10-04T06:28:05;6.13;;;4.20;;
35797;SDS011;21918;49.940;7.774;2022-10-04T06:30:43;4.40;;;3.78;;
35797;SDS011;21918;49.940;7.774;2022-10-04T06:33:30;4.20;;;3.80;;
35797;SDS011;21918;49.940;7.774;2022-10-04T06:36:28;4.43;;;4.03;;
35797;SDS011;21918;49.940;7.774;2022-10-04T06:39:09;5.43;;;4.38;;
35797;SDS011;21918;49.940;7.774;2022-10-04T06:41:56;5.00;;;4.15;;
35797;SDS011;21918;49.940;7.774;2022-10-04T06:45:00;6.45;;;4.97;;
35797;SDS011;21918;49.940;7.774;2022-10-04T06:47:54;7.43;;;4.32;;
35797;SDS011;21918;49.940;7.774;2022-10-04T06:50:37;6.22;;;4.90;;
35797;SDS011;21918;49.940;7.774;2022-10-04T06:53:14;5.57;;;4.35;;
35797;SDS011;21918;49.940;7.774;2022-10-04T06:55:57;5.07;;;4.57;;
35797;SDS011;21918;49.940;7.774;2022-10-04T06:58:46;4.50;;;4.10;;
35797;SDS011;21918;49.940;7.774;2022-10-04T07:01:26;8.07;;;4.60;;
35797;SDS011;21918;49.940;7.774;2022-10-04T07:03:56;5.40;;;4.45;;
35797;SDS011;21918;49.940;7.774;2022-10-04T07:06:29;4.55;;;4.15;;
35797;SDS011;21918;49.940;7.774;2022-10-04T07:09:02;5.25;;;4.70;;
35797;SDS011;21918;49.940;7.774;2022-10-04T07:11:35;5.25;;;4.75;;
35797;SDS011;21918;49.940;7.774;2022-10-04T07:14:09;5.68;;;4.05;;
35797;SDS011;21918;49.940;7.774;2022-10-04T07:16:39;5.00;;;4.03;;
35797;SDS011;21918;49.940;7.774;2022-10-04T07:22:09;7.95;;;5.03;;
35797;SDS011;21918;49.940;7.774;2022-10-04T07:24:48;4.60;;;4.10;;
35797;SDS011;21918;49.940;7.774;2022-10-04T07:27:23;7.13;;;4.25;;
35797;SDS011;21918;49.940;7.774;2022-10-04T07:32:42;5.40;;;4.00;;
35797;SDS011;21918;49.940;7.774;2022-10-04T07:35:15;4.70;;;4.15;;
35797;SDS011;21918;49.940;7.774;2022-10-04T07:37:49;5.82;;;4.03;;
35797;SDS011;21918;49.940;7.774;2022-10-04T07:40:24;20.67;;;5.72;;
35797;SDS011;21918;49.940;7.774;2022-10-04T07:42:56;4.95;;;4.00;;
35797;SDS011;21918;49.940;7.774;2022-10-04T07:45:28;6.97;;;4.75;;
35797;SDS011;21918;49.940;7.774;2022-10-04T07:48:01;4.03;;;3.65;;
35797;SDS011;21918;49.940;7.774;2022-10-04T07:50:31;4.85;;;3.80;;
35797;SDS011;21918;49.940;7.774;2022-10-04T07:53:05;6.03;;;4.25;;
35797;SDS011;21918;49.940;7.774;2022-10-04T07:55:41;5.50;;;4.22;;
35797;SDS011;21918;49.940;7.774;2022-10-04T07:58:21;6.20;;;4.30;;
35797;SDS011;21918;49.940;7.774;2022-10-04T08:01:03;4.57;;;4.10;;
35797;SDS011;21918;49.940;7.774;2022-10-04T08:03:44;4.40;;;3.83;;
35797;SDS011;21918;49.940;7.774;2022-10-04T08:06:17;6.00;;;4.43;;
35797;SDS011;21918;49.940;7.774;2022-10-04T08:09:02;5.57;;;4.28;;
35797;SDS011;21918;49.940;7.774;2022-10-04T08:11:43;6.47;;;4.30;;
35797;SDS011;21918;49.940;7.774;2022-10-04T08:14:23;4.80;;;4.07;;
35797;SDS011;21918;49.940;7.774;2022-10-04T08:17:10;4.40;;;3.78;;
35797;SDS011;21918;49.940;7.774;2022-10-04T08:19:47;5.03;;;4.53;;
35797;SDS011;21918;49.940;7.774;2022-10-04T08:22:22;6.13;;;4.18;;
35797;SDS011;21918;49.940;7.774;2022-10-04T08:25:03;5.07;;;4.22;;
35797;SDS011;21918;49.940;7.774;2022-10-04T08:27:45;7.72;;;5.38;;
35797;SDS011;21918;49.940;7.774;2022-10-04T08:30:39;11.15;;;6.75;;
35797;SDS011;21918;49.940;7.774;2022-10-04T08:33:26;12.90;;;6.30;;
35797;SDS011;21918;49.940;7.774;2022-10-04T08:36:19;9.02;;;5.75;;
35797;SDS011;21918;49.940;7.774;2022-10-04T08:38:56;7.03;;;6.22;;
35797;SDS011;21918;49.940;7.774;2022-10-04T08:44:44;10.60;;;6.47;;
35797;SDS011;21918;49.940;7.774;2022-10-04T08:50:44;7.05;;;5.88;;
35797;SDS011;21918;49.940;7.774;2022-10-04T08:53:44;7.10;;;5.72;;
35797;SDS011;21918;49.940;7.774;2022-10-04T08:56:38;16.63;;;7.32;;
35797;SDS011;21918;49.940;7.774;2022-10-04T08:59:31;10.30;;;6.78;;
35797;SDS011;21918;49.940;7.774;2022-10-04T09:02:27;16.17;;;8.07;;
35797;SDS011;21918;49.940;7.774;2022-10-04T09:05:19;12.65;;;7.80;;
35797;SDS011;21918;49.940;7.774;2022-10-04T09:11:10;9.68;;;6.88;;
35797;SDS011;21918;49.940;7.774;2022-10-04T09:14:05;14.35;;;8.15;;
35797;SDS011;21918;49.940;7.774;2022-10-04T09:16:51;9.38;;;6.65;;
35797;SDS011;21918;49.940;7.774;2022-10-04T09:19:36;14.88;;;8.35;;
35797;SDS011;21918;49.940;7.774;2022-10-04T09:22:15;13.15;;;9.60;;
35797;SDS011;21918;49.940;7.774;2022-10-04T09:24:49;13.95;;;9.20;;
35797;SDS011;21918;49.940;7.774;2022-10-04T09:27:31;14.98;;;8.38;;
35797;SDS011;21918;49.940;7.774;2022-10-04T09:30:14;13.70;;;8.68;;
35797;SDS011;21918;49.940;7.774;2022-10-04T09:38:55;12.15;;;8.20;;
35797;SDS011;21918;49.940;7.774;2022-10-04T09:41:45;14.65;;;8.40;;
35797;SDS011;21918;49.940;7.774;2022-10-04T09:47:42;15.25;;;9.30;;
35797;SDS011;21918;49.940;7.774;2022-10-04T09:53:22;14.05;;;8.95;;
35797;SDS011;21918;49.940;7.774;2022-10-04T09:56:13;11.50;;;8.77;;
35797;SDS011;21918;49.940;7.774;2022-10-04T09:59:11;10.93;;;7.47;;
35797;SDS011;21918;49.940;7.774;2022-10-04T10:04:55;12.27;;;7.68;;
35797;SDS011;21918;49.940;7.774;2022-10-04T10:07:42;12.98;;;7.75;;
35797;SDS011;21918;49.940;7.774;2022-10-04T10:10:19;14.13;;;7.90;;
35797;SDS011;21918;49.940;7.774;2022-10-04T10:13:13;17.10;;;9.48;;
35797;SDS011;21918;49.940;7.774;2022-10-04T10:19:03;9.43;;;7.78;;
35797;SDS011;21918;49.940;7.774;2022-10-04T10:21:48;9.70;;;6.38;;
35797;SDS011;21918;49.940;7.774;2022-10-04T10:27:41;14.00;;;8.32;;
35797;SDS011;21918;49.940;7.774;2022-10-04T10:33:23;11.90;;;7.43;;
35797;SDS011;21918;49.940;7.774;2022-10-04T10:38:48;15.98;;;9.02;;
35797;SDS011;21918;49.940;7.774;2022-10-04T10:41:38;11.05;;;7.50;;
35797;SDS011;21918;49.940;7.774;2022-10-04T10:44:23;12.77;;;8.15;;
35797;SDS011;21918;49.940;7.774;2022-10-04T10:47:03;12.23;;;8.00;;
35797;SDS011;21918;49.940;7.774;2022-10-04T10:49:47;12.82;;;8.82;;
35797;SDS011;21918;49.940;7.774;2022-10-04T10:52:39;10.95;;;7.38;;
35797;SDS011;21918;49.940;7.774;2022-10-04T10:55:28;13.90;;;7.93;;
35797;SDS011;21918;49.940;7.774;2022-10-04T10:58:26;14.55;;;7.88;;
35797;SDS011;21918;49.940;7.774;2022-10-04T11:01:32;19.15;;;7.85;;
35797;SDS011;21918;49.940;7.774;2022-10-04T11:04:28;10.45;;;6.97;;
35797;SDS011;21918;49.940;7.774;2022-10-04T11:07:32;13.82;;;7.72;;
35797;SDS011;21918;49.940;7.774;2022-10-04T11:10:20;16.70;;;7.90;;
35797;SDS011;21918;49.940;7.774;2022-10-04T11:16:16;17.92;;;7.90;;
35797;SDS011;21918;49.940;7.774;2022-10-04T11:22:39;18.13;;;10.80;;
35797;SDS011;21918;49.940;7.774;2022-10-04T11:25:35;21.08;;;11.30;;
35797;SDS011;21918;49.940;7.774;2022-10-04T11:28:26;16.50;;;10.57;;
35797;SDS011;21918;49.940;7.774;2022-10-04T11:37:06;14.45;;;9.18;;
35797;SDS011;21918;49.940;7.774;2022-10-04T11:39:58;11.02;;;7.95;;
35797;SDS011;21918;49.940;7.774;2022-10-04T11:42:39;9.18;;;7.13;;
35797;SDS011;21918;49.940;7.774;2022-10-04T11:48:30;11.95;;;8.82;;
35797;SDS011;21918;49.940;7.774;2022-10-04T11:51:13;14.15;;;9.15;;
35797;SDS011;21918;49.940;7.774;2022-10-04T11:53:57;10.15;;;7.80;;
35797;SDS011;21918;49.940;7.774;2022-10-04T11:56:57;11.32;;;7.57;;
35797;SDS011;21918;49.940;7.774;2022-10-04T11:59:44;17.17;;;9.95;;
35797;SDS011;21918;49.940;7.774;2022-10-04T12:05:44;13.32;;;7.90;;
35797;SDS011;21918;49.940;7.774;2022-10-04T12:08:45;16.15;;;7.65;;
35797;SDS011;21918;49.940;7.774;2022-10-04T12:14:51;18.00;;;9.18;;
35797;SDS011;21918;49.940;7.774;2022-10-04T12:17:36;13.63;;;8.23;;
35797;SDS011;21918;49.940;7.774;2022-10-04T12:20:36;18.42;;;8.70;;
35797;SDS011;21918;49.940;7.774;2022-10-04T12:23:23;13.50;;;9.52;;
35797;SDS011;21918;49.940;7.774;2022-10-04T12:29:20;14.10;;;8.65;;
35797;SDS011;21918;49.940;7.774;2022-10-04T12:32:03;20.30;;;9.15;;
35797;SDS011;21918;49.940;7.774;2022-10-04T12:34:39;13.65;;;9.15;;
35797;SDS011;21918;49.940;7.774;2022-10-04T12:37:19;12.80;;;8.55;;
35797;SDS011;21918;49.940;7.774;2022-10-04T12:40:02;14.00;;;7.72;;
35797;SDS011;21918;49.940;7.774;2022-10-04T12:42:45;8.48;;;7.40;;
35797;SDS011;21918;49.940;7.774;2022-10-04T12:45:26;10.52;;;7.55;;
35797;SDS011;21918;49.940;7.774;2022-10-04T12:48:23;8.93;;;7.13;;
35797;SDS011;21918;49.940;7.774;2022-10-04T12:51:04;14.88;;;8.77;;
35797;SDS011;21918;49.940;7.774;2022-10-04T12:53:48;13.00;;;8.10;;
35797;SDS011;21918;49.940;7.774;2022-10-04T12:56:28;15.55;;;9.25;;
35797;SDS011;21918;49.940;7.774;2022-10-04T13:02:16;12.48;;;6.70;;
35797;SDS011;21918;49.940;7.774;2022-10-04T13:04:57;12.52;;;7.68;;
35797;SDS011;21918;49.940;7.774;2022-10-04T13:07:36;10.60;;;7.88;;
35797;SDS011;21918;49.940;7.774;2022-10-04T13:10:19;13.00;;;8.45;;
35797;SDS011;21918;49.940;7.774;2022-10-04T13:13:10;11.57;;;8.02;;
35797;SDS011;21918;49.940;7.774;2022-10-04T13:15:49;11.93;;;8.48;;
35797;SDS011;21918;49.940;7.774;2022-10-04T13:18:24;13.50;;;8.07;;
35797;SDS011;21918;49.940;7.774;2022-10-04T13:20:58;9.98;;;8.02;;
35797;SDS011;21918;49.940;7.774;2022-10-04T13:23:34;11.15;;;7.25;;
35797;SDS011;21918;49.940;7.774;2022-10-04T13:26:14;14.15;;;8.43;;
35797;SDS011;21918;49.940;7.774;2022-10-04T13:28:56;9.32;;;6.72;;
35797;SDS011;21918;49.940;7.774;2022-10-04T13:31:31;10.55;;;8.75;;
35797;SDS011;21918;49.940;7.774;2022-10-04T13:34:05;14.15;;;8.13;;
35797;SDS011;21918;49.940;7.774;2022-10-04T13:36:54;11.88;;;8.75;;
35797;SDS011;21918;49.940;7.774;2022-10-04T13:39:44;10.18;;;8.35;;
35797;SDS011;21918;49.940;7.774;2022-10-04T13:42:36;12.57;;;7.85;;
35797;SDS011;21918;49.940;7.774;2022-10-04T13:45:18;12.48;;;8.07;;
35797;SDS011;21918;49.940;7.774;2022-10-04T13:48:03;10.73;;;7.32;;
35797;SDS011;21918;49.940;7.774;2022-10-04T13:50:53;10.82;;;7.22;;
35797;SDS011;21918;49.940;7.774;2022-10-04T13:53:33;12.25;;;7.40;;
35797;SDS011;21918;49.940;7.774;2022-10-04T13:56:38;13.88;;;7.68;;
35797;SDS011;21918;49.940;7.774;2022-10-04T13:59:16;10.00;;;7.38;;
35797;SDS011;21918;49.940;7.774;2022-10-04T14:08:12;11.32;;;7.82;;
35797;SDS011;21918;49.940;7.774;2022-10-04T14:10:59;18.25;;;7.97;;
35797;SDS011;21918;49.940;7.774;2022-10-04T14:16:59;8.48;;;7.53;;
35797;SDS011;21918;49.940;7.774;2022-10-04T14:23:01;13.70;;;8.15;;
35797;SDS011;21918;49.940;7.774;2022-10-04T14:29:11;11.30;;;7.85;;
35797;SDS011;21918;49.940;7.774;2022-10-04T14:32:01;11.32;;;7.55;;
35797;SDS011;21918;49.940;7.774;2022-10-04T14:40:44;13.82;;;8.65;;
35797;SDS011;21918;49.940;7.774;2022-10-04T14:43:43;62.47;;;20.63;;
35797;SDS011;21918;49.940;7.774;2022-10-04T14:46:33;15.90;;;10.40;;
35797;SDS011;21918;49.940;7.774;2022-10-04T14:49:14;17.17;;;9.68;;
35797;SDS011;21918;49.940;7.774;2022-10-04T14:54:43;10.68;;;8.15;;
35797;SDS011;21918;49.940;7.774;2022-10-04T14:57:19;9.43;;;7.50;;
35797;SDS011;21918;49.940;7.774;2022-10-04T15:00:10;14.45;;;7.72;;
35797;SDS011;21918;49.940;7.774;2022-10-04T15:05:58;13.68;;;7.88;;
35797;SDS011;21918;49.940;7.774;2022-10-04T15:11:36;12.90;;;7.60;;
35797;SDS011;21918;49.940;7.774;2022-10-04T15:14:28;9.15;;;7.25;;
35797;SDS011;21918;49.940;7.774;2022-10-04T15:17:23;10.48;;;7.85;;
35797;SDS011;21918;49.940;7.774;2022-10-04T15:19:58;11.73;;;8.13;;
35797;SDS011;21918;49.940;7.774;2022-10-04T15:22:37;12.40;;;7.65;;
35797;SDS011;21918;49.940;7.774;2022-10-04T15:28:05;9.65;;;8.30;;
35797;SDS011;21918;49.940;7.774;2022-10-04T15:30:45;8.52;;;7.40;;
35797;SDS011;21918;49.940;7.774;2022-10-04T15:33:24;8.35;;;7.28;;
35797;SDS011;21918;49.940;7.774;2022-10-04T15:36:10;8.52;;;7.50;;
35797;SDS011;21918;49.940;7.774;2022-10-04T15:38:50;9.80;;;7.25;;
35797;SDS011;21918;49.940;7.774;2022-10-04T15:41:29;9.55;;;7.53;;
35797;SDS011;21918;49.940;7.774;2022-10-04T15:47:25;14.15;;;7.72;;
35797;SDS011;21918;49.940;7.774;2022-10-04T15:50:07;8.32;;;6.63;;
35797;SDS011;21918;49.940;7.774;2022-10-04T15:52:54;12.38;;;7.80;;
35797;SDS011;21918;49.940;7.774;2022-10-04T15:58:33;12.02;;;7.78;;
35797;SDS011;21918;49.940;7.774;2022-10-04T16:01:23;13.40;;;7.43;;
35797;SDS011;21918;49.940;7.774;2022-10-04T16:04:18;13.70;;;8.02;;
35797;SDS011;21918;49.940;7.774;2022-10-04T16:07:09;11.60;;;7.05;;
35797;SDS011;21918;49.940;7.774;2022-10-04T16:09:51;11.40;;;7.95;;
35797;SDS011;21918;49.940;7.774;2022-10-04T16:12:27;9.23;;;7.75;;
35797;SDS011;21918;49.940;7.774;2022-10-04T16:14:57;11.95;;;8.23;;
35797;SDS011;21918;49.940;7.774;2022-10-04T16:20:40;18.17;;;8.10;;
35797;SDS011;21918;49.940;7.774;2022-10-04T16:23:28;11.38;;;8.60;;
35797;SDS011;21918;49.940;7.774;2022-10-04T16:26:01;13.00;;;7.75;;
35797;SDS011;21918;49.940;7.774;2022-10-04T16:28:42;24.27;;;8.95;;
35797;SDS011;21918;49.940;7.774;2022-10-04T16:31:35;11.57;;;7.47;;
35797;SDS011;21918;49.940;7.774;2022-10-04T16:34:14;13.23;;;7.63;;
35797;SDS011;21918;49.940;7.774;2022-10-04T16:36:50;16.42;;;7.93;;
35797;SDS011;21918;49.940;7.774;2022-10-04T16:39:30;11.13;;;7.90;;
35797;SDS011;21918;49.940;7.774;2022-10-04T16:42:18;11.13;;;6.85;;
35797;SDS011;21918;49.940;7.774;2022-10-04T16:44:52;9.70;;;7.63;;
35797;SDS011;21918;49.940;7.774;2022-10-04T16:47:25;9.18;;;7.50;;
35797;SDS011;21918;49.940;7.774;2022-10-04T16:49:56;8.15;;;7.13;;
35797;SDS011;21918;49.940;7.774;2022-10-04T16:52:35;8.40;;;7.32;;
35797;SDS011;21918;49.940;7.774;2022-10-04T17:04:40;9.20;;;7.53;;
35797;SDS011;21918;49.940;7.774;2022-10-04T17:07:21;13.73;;;7.70;;
35797;SDS011;21918;49.940;7.774;2022-10-04T17:09:53;10.15;;;7.85;;
35797;SDS011;21918;49.940;7.774;2022-10-04T17:12:28;13.68;;;8.68;;
35797;SDS011;21918;49.940;7.774;2022-10-04T17:15:10;15.93;;;9.27;;
35797;SDS011;21918;49.940;7.774;2022-10-04T17:17:53;14.38;;;8.82;;
35797;SDS011;21918;49.940;7.774;2022-10-04T17:20:26;14.13;;;9.07;;
35797;SDS011;21918;49.940;7.774;2022-10-04T17:23:09;11.63;;;9.18;;
35797;SDS011;21918;49.940;7.774;2022-10-04T17:25:46;7.65;;;6.80;;
35797;SDS011;21918;49.940;7.774;2022-10-04T17:28:26;11.18;;;8.35;;
35797;SDS011;21918;49.940;7.774;2022-10-04T17:30:57;11.50;;;7.80;;
35797;SDS011;21918;49.940;7.774;2022-10-04T17:33:35;11.45;;;7.60;;
35797;SDS011;21918;49.940;7.774;2022-10-04T17:36:18;13.18;;;8.00;;
35797;SDS011;21918;49.940;7.774;2022-10-04T17:38:57;9.45;;;7.75;;
35797;SDS011;21918;49.940;7.774;2022-10-04T17:41:35;8.52;;;7.70;;
35797;SDS011;21918;49.940;7.774;2022-10-04T17:44:29;7.10;;;6.40;;
35797;SDS011;21918;49.940;7.774;2022-10-04T17:47:07;9.98;;;7.30;;
35797;SDS011;21918;49.940;7.774;2022-10-04T17:49:41;12.57;;;11.25;;
35797;SDS011;21918;49.940;7.774;2022-10-04T17:52:39;10.20;;;9.20;;
35797;SDS011;21918;49.940;7.774;2022-10-04T17:55:27;8.80;;;7.60;;
35797;SDS011;21918;49.940;7.774;2022-10-04T17:58:15;8.10;;;6.35;;
35797;SDS011;21918;49.940;7.774;2022-10-04T18:00:51;11.15;;;8.65;;
35797;SDS011;21918;49.940;7.774;2022-10-04T18:03:30;7.78;;;7.03;;
35797;SDS011;21918;49.940;7.774;2022-10-04T18:06:10;9.55;;;8.15;;
35797;SDS011;21918;49.940;7.774;2022-10-04T18:08:44;8.68;;;7.80;;
35797;SDS011;21918;49.940;7.774;2022-10-04T18:11:31;10.27;;;7.85;;
35797;SDS011;21918;49.940;7.774;2022-10-04T18:14:11;7.28;;;6.57;;
35797;SDS011;21918;49.940;7.774;2022-10-04T18:16:47;8.52;;;7.68;;
35797;SDS011;21918;49.940;7.774;2022-10-04T18:19:36;9.05;;;8.13;;